Terminal Aerodrome Forecast
Issued by NWS

Home | Current Version | Previous Version | Text Only | Print | Product List | Glossary On
Versions: 1 2 3 4 5 6 7 8 9 10 11 12 13 14 15 16 17 18 19 20 21 22 23 24 25 26
000
FTUS44 KLIX 182356
TAFMSY
TAF
KMSY 182356Z 1900/2006 10004KT P6SM BKN250
     FM191800 11006KT P6SM BKN100
     FM192100 17011KT P6SM VCTS SCT040CB BKN120
     FM200200 VRB03KT P6SM SKC=

USA.gov is the U.S. government's official web portal to all federal, state and local government web resources and services.